Time;durP1;ratioP1;P1;durP2;ratioP2;P2;SDS_P1;SDS_P2;PMS_P1;PMS_P2;Temp;Humidity;BMP_temperature;BMP_pressure;BME280_temperature;BME280_humidity;BME280_pressure;Samples;Min_cycle;Max_cycle;Signal;HPM_P1;HPM_P2
2021/05/13 15:42:26;;;;;;;5.68;2.88;;;19.10;51.00;;;;;;6267837;22;899523;-83
2021/05/13 15:44:51;;;;;;;4.43;2.55;;;19.10;50.70;;;;;;6300612;22;20088;-82
2021/05/13 15:47:17;;;;;;;3.42;2.60;;;19.00;50.60;;;;;;6303065;22;20011;-81
2021/05/13 15:49:43;;;;;;;5.18;2.70;;;19.00;51.10;;;;;;6304397;22;20475;-82
2021/05/13 15:52:09;;;;;;;4.40;2.58;;;19.00;52.00;;;;;;6305477;22;19999;-81
2021/05/13 15:54:38;;;;;;;5.15;2.17;;;18.90;52.70;;;;;;6279561;22;19999;-81
2021/05/13 15:57:11;;;;;;;4.30;2.50;;;18.90;53.00;;;;;;6304577;22;20013;-82
2021/05/13 15:59:37;;;;;;;4.82;2.42;;;18.90;53.30;;;;;;6278285;22;20042;-81
2021/05/13 16:02:03;;;;;;;3.38;2.28;;;18.90;53.60;;;;;;6279453;22;20003;-81
2021/05/13 16:04:29;;;;;;;4.88;2.00;;;18.80;53.70;;;;;;6303778;22;20359;-82
2021/05/13 16:06:57;;;;;;;4.43;2.47;;;18.80;54.20;;;;;;6278679;22;20068;-80
2021/05/13 16:09:23;;;;;;;5.32;2.50;;;18.80;54.40;;;;;;6278204;22;20294;-81
2021/05/13 16:11:50;;;;;;;5.50;2.60;;;18.80;54.70;;;;;;6277021;22;20329;-80
2021/05/13 16:14:15;;;;;;;5.28;2.75;;;18.80;54.70;;;;;;6277529;22;20004;-83
2021/05/13 16:16:49;;;;;;;6.22;2.90;;;18.80;54.50;;;;;;6303577;22;20330;-86
2021/05/13 16:19:17;;;;;;;3.28;2.10;;;18.80;54.80;;;;;;6304009;22;20007;-87
2021/05/13 16:21:46;;;;;;;4.15;2.83;;;18.80;55.20;;;;;;6304552;22;20004;-81
2021/05/13 16:24:15;;;;;;;7.90;3.80;;;18.80;55.50;;;;;;6305237;22;20013;-81
2021/05/13 16:26:43;;;;;;;4.93;3.10;;;18.80;55.80;;;;;;6278254;22;20008;-82
2021/05/13 16:29:09;;;;;;;5.45;3.28;;;18.80;56.00;;;;;;6252693;22;20014;-80
2021/05/13 16:31:36;;;;;;;6.53;3.83;;;18.70;56.00;;;;;;6253041;22;20332;-81
2021/05/13 16:34:03;;;;;;;5.80;3.63;;;18.80;56.20;;;;;;6303406;22;20436;-80
2021/05/13 16:36:30;;;;;;;6.32;4.13;;;18.70;56.20;;;;;;6304809;22;20014;-81
2021/05/13 16:38:56;;;;;;;6.88;3.88;;;18.60;56.60;;;;;;6277307;22;20023;-80
2021/05/13 16:41:22;;;;;;;5.25;4.05;;;18.60;57.00;;;;;;6272199;22;20019;-80
2021/05/13 16:43:47;;;;;;;9.77;5.93;;;18.60;57.40;;;;;;6247139;22;20029;-80
2021/05/13 16:46:13;;;;;;;8.70;4.35;;;18.50;57.70;;;;;;6246469;22;20107;-80
2021/05/13 19:49:21;;;;;;;;;;;;;;;;;;;;;
2021/05/13 20:19:57;;;;;;;;;;;;;;;;;;;;;
2021/05/13 20:22:52;;;;;;;12.60;11.30;;;13.80;90.90;;;;;;5791824;24;20126;-94
2021/05/13 20:29:50;;;;;;;;;;;;;;;;;;;;;
2021/05/13 20:32:43;;;;;;;13.50;12.18;;;13.70;91.20;;;;;;5897486;24;20087;-91
2021/05/13 20:36:09;;;;;;;;;;;;;;;;;;;;;
2021/05/13 20:39:41;;;;;;;;;;;;;;;;;;;;;
2021/05/13 21:42:51;;;;;;;;;;;;;;;;;;;;;
2021/05/13 21:53:09;;;;;;;;;;;;;;;;;;;;;
2021/05/13 21:57:21;;;;;;;13.10;11.80;;;13.40;91.40;;;;;;5869465;24;20084;-88
2021/05/13 22:03:33;;;;;;;;;;;;;;;;;;;;;
2021/05/13 22:06:46;;;;;;;13.40;12.00;;;13.30;91.40;;;;;;5951164;24;20025;-89
2021/05/13 22:10:06;;;;;;;;;;;;;;;;;;;;;
2021/05/13 22:17:01;;;;;;;;;;;;;;;;;;;;;
2021/05/13 22:20:38;;;;;;;;;;;;;;;;;;;;;
2021/05/13 22:34:03;;;;;;;;;;;;;;;;;;;;;
2021/05/13 22:40:04;;;;;;;14.45;12.93;;;13.20;91.30;;;;;;6182783;23;20005;-89
2021/05/13 22:43:18;;;;;;;;;;;;;;;;;;;;;
2021/05/13 22:46:16;;;;;;;14.00;12.50;;;13.20;91.50;;;;;;6276417;22;20501;-89
2021/05/13 22:49:29;;;;;;;;;;;;;;;;;;;;;
2021/05/13 22:56:01;;;;;;;;;;;;;;;;;;;;;
2021/05/13 23:09:19;;;;;;;;;;;;;;;;;;;;;
2021/05/13 23:12:09;;;;;;;12.48;11.05;;;13.10;91.70;;;;;;6137526;23;20089;-88
2021/05/13 23:15:28;;;;;;;;;;;;;;;;;;;;;
2021/05/13 23:25:04;;;;;;;;;;;;;;;;;;;;;
2021/05/13 23:51:56;;;;;;;;;;;;;;;;;;;;;
